Time;durP1;ratioP1;P1;durP2;ratioP2;P2;SDS_P1;SDS_P2;PMS_P1;PMS_P2;Temp;Humidity;BMP_temperature;BMP_pressure;BME280_temperature;BME280_humidity;BME280_pressure;Samples;Min_cycle;Max_cycle;Signal;HPM_P1;HPM_P2
2021/10/23 00:02:04;;;;;;;5.30;2.60;;;9.40;63.40;;;;;;5035281;28;20290;-70
2021/10/23 00:04:30;;;;;;;3.05;2.40;;;9.50;63.20;;;;;;5035335;28;20210;-71
2021/10/23 00:06:57;;;;;;;5.20;2.35;;;9.50;63.10;;;;;;5035632;28;20207;-71
2021/10/23 00:09:25;;;;;;;3.63;2.50;;;9.50;63.30;;;;;;5034963;28;20315;-71
2021/10/23 00:11:52;;;;;;;5.70;2.40;;;9.50;62.90;;;;;;5035266;28;20253;-71
2021/10/23 00:14:19;;;;;;;7.25;2.75;;;9.50;63.30;;;;;;5035085;28;20293;-71
2021/10/23 00:16:46;;;;;;;5.45;2.58;;;9.50;63.50;;;;;;5035003;28;20211;-71
2021/10/23 00:19:13;;;;;;;2.97;2.25;;;9.40;63.60;;;;;;5034638;28;20219;-70
2021/10/23 00:21:39;;;;;;;5.00;2.50;;;9.40;63.60;;;;;;5035390;28;20235;-72
2021/10/23 00:24:06;;;;;;;5.95;2.33;;;9.40;63.60;;;;;;5034915;28;20242;-71
2021/10/23 00:26:34;;;;;;;10.32;2.90;;;9.40;63.90;;;;;;5034883;28;20303;-73
2021/10/23 00:29:01;;;;;;;7.57;3.08;;;9.50;64.00;;;;;;5034337;28;20237;-71
2021/10/23 00:31:28;;;;;;;4.30;2.67;;;9.50;63.90;;;;;;5034727;28;20250;-71
2021/10/23 00:33:55;;;;;;;5.90;2.50;;;9.50;63.90;;;;;;5034984;28;20210;-72
2021/10/23 00:36:22;;;;;;;5.07;2.65;;;9.50;63.70;;;;;;5035114;28;20302;-71
2021/10/23 00:38:49;;;;;;;4.15;2.05;;;9.50;64.20;;;;;;5034347;28;20203;-70
2021/10/23 00:41:16;;;;;;;7.45;2.80;;;9.40;64.70;;;;;;5034996;28;20607;-71
2021/10/23 00:43:45;;;;;;;4.30;2.72;;;9.40;64.80;;;;;;5034593;28;20200;-72
2021/10/23 00:46:13;;;;;;;3.95;1.83;;;9.40;64.60;;;;;;5034480;28;20207;-72
2021/10/23 00:48:40;;;;;;;4.30;2.78;;;9.40;64.80;;;;;;5033923;28;20254;-71
2021/10/23 00:51:07;;;;;;;4.70;2.72;;;9.50;64.80;;;;;;5035206;28;20243;-72
2021/10/23 00:53:33;;;;;;;4.43;2.08;;;9.40;64.70;;;;;;5034743;28;20294;-72
2021/10/23 00:56:00;;;;;;;4.45;2.58;;;9.50;65.00;;;;;;5034409;28;20306;-71
2021/10/23 00:58:28;;;;;;;5.13;2.30;;;9.40;64.90;;;;;;5034406;28;20211;-72
2021/10/23 01:00:56;;;;;;;3.10;1.92;;;9.40;65.20;;;;;;5034030;28;20230;-72
2021/10/23 01:03:23;;;;;;;7.13;2.42;;;9.40;65.40;;;;;;5034247;28;20200;-72
2021/10/23 01:05:50;;;;;;;4.70;2.42;;;9.40;65.20;;;;;;5034429;28;20239;-72
2021/10/23 01:08:17;;;;;;;8.13;2.72;;;9.40;64.90;;;;;;5034364;28;20208;-72
2021/10/23 01:10:45;;;;;;;2.50;2.22;;;9.40;65.10;;;;;;5033397;28;20301;-71
2021/10/23 01:13:12;;;;;;;5.60;2.58;;;9.40;65.30;;;;;;5034248;28;20573;-72
2021/10/23 01:15:39;;;;;;;5.03;2.47;;;9.40;64.80;;;;;;5034181;28;20298;-72
2021/10/23 01:18:09;;;;;;;5.95;2.30;;;9.40;64.70;;;;;;5034161;28;20213;-72
2021/10/23 01:20:37;;;;;;;6.00;2.67;;;9.40;64.80;;;;;;5038047;28;20223;-72
2021/10/23 01:23:04;;;;;;;3.97;1.92;;;9.40;64.60;;;;;;5045404;28;20631;-72
2021/10/23 01:25:34;;;;;;;3.85;2.33;;;9.40;64.90;;;;;;5046173;28;20268;-72
2021/10/23 01:28:03;;;;;;;4.53;2.70;;;9.40;64.80;;;;;;5045627;28;20211;-73
2021/10/23 01:30:30;;;;;;;5.15;2.78;;;9.40;64.50;;;;;;5035046;28;20230;-71
2021/10/23 01:32:59;;;;;;;6.13;2.40;;;9.40;64.30;;;;;;5034143;28;20270;-72
2021/10/23 01:35:27;;;;;;;5.72;2.45;;;9.40;63.90;;;;;;5034077;28;20211;-72
2021/10/23 01:37:56;;;;;;;6.80;2.95;;;9.40;63.70;;;;;;5034048;28;20207;-72
2021/10/23 01:40:25;;;;;;;4.55;2.53;;;9.50;63.40;;;;;;5033427;28;20215;-72
2021/10/23 01:42:52;;;;;;;5.35;2.80;;;9.40;63.50;;;;;;5034102;28;20208;-72
2021/10/23 01:45:19;;;;;;;4.20;1.92;;;9.40;63.20;;;;;;5033574;28;20282;-72
2021/10/23 01:47:46;;;;;;;2.65;1.80;;;9.40;63.10;;;;;;5033567;28;20223;-73
2021/10/23 01:50:15;;;;;;;3.17;2.00;;;9.40;62.70;;;;;;5033393;28;20235;-72
2021/10/23 01:52:42;;;;;;;6.90;2.83;;;9.40;62.50;;;;;;5033564;28;20726;-72
2021/10/23 01:55:11;;;;;;;3.65;2.10;;;9.40;62.70;;;;;;5033563;28;20196;-72
2021/10/23 01:57:39;;;;;;;5.57;2.45;;;9.40;62.50;;;;;;5033837;28;20703;-72
2021/10/23 02:00:08;;;;;;;5.50;2.20;;;9.40;62.20;;;;;;5033214;28;20227;-72
2021/10/23 02:02:35;;;;;;;4.65;2.65;;;9.40;62.20;;;;;;5033861;28;20207;-72
2021/10/23 02:05:01;;;;;;;3.50;1.70;;;9.40;62.10;;;;;;5033351;28;20218;-72
2021/10/23 02:07:28;;;;;;;2.40;1.70;;;9.40;62.30;;;;;;5033727;28;20230;-72
2021/10/23 02:09:55;;;;;;;3.40;1.90;;;9.30;62.40;;;;;;5034113;28;20242;-72
2021/10/23 02:12:24;;;;;;;2.75;2.20;;;9.30;63.20;;;;;;5033240;28;20561;-72
2021/10/23 02:14:51;;;;;;;20.60;3.83;;;9.30;62.50;;;;;;5033562;28;20576;-72
2021/10/23 02:17:17;;;;;;;5.45;2.45;;;9.30;62.40;;;;;;5033475;28;20211;-72
2021/10/23 02:19:44;;;;;;;7.57;2.90;;;9.30;62.50;;;;;;5034437;28;20766;-72
2021/10/23 02:22:11;;;;;;;3.80;2.47;;;9.30;63.20;;;;;;5034226;28;20206;-72
2021/10/23 02:24:38;;;;;;;4.90;2.45;;;9.30;62.40;;;;;;5037083;28;20218;-72
2021/10/23 02:27:05;;;;;;;5.82;2.00;;;9.30;62.70;;;;;;5036084;28;20246;-72
2021/10/23 02:29:33;;;;;;;5.53;2.50;;;9.30;62.90;;;;;;5037184;28;20230;-72
2021/10/23 02:32:00;;;;;;;3.67;2.67;;;9.30;63.20;;;;;;5038341;28;20310;-72
2021/10/23 02:34:27;;;;;;;5.90;2.58;;;9.30;63.20;;;;;;5040278;28;20218;-72
2021/10/23 02:36:54;;;;;;;4.85;2.30;;;9.30;63.10;;;;;;5034869;28;20199;-72
2021/10/23 02:39:20;;;;;;;2.97;2.40;;;9.30;63.10;;;;;;5033983;28;20227;-72
2021/10/23 02:41:47;;;;;;;4.45;2.20;;;9.30;63.10;;;;;;5032188;28;20299;-72
2021/10/23 02:44:14;;;;;;;4.72;2.70;;;9.30;63.30;;;;;;5033087;28;20242;-72
2021/10/23 02:46:43;;;;;;;4.57;2.05;;;9.30;63.50;;;;;;5032295;28;20751;-72
2021/10/23 02:49:09;;;;;;;6.22;2.13;;;9.20;63.90;;;;;;5032495;28;20239;-73
2021/10/23 02:51:36;;;;;;;5.35;2.22;;;9.30;63.90;;;;;;5032697;28;20233;-73
2021/10/23 02:54:04;;;;;;;6.72;2.00;;;9.20;63.40;;;;;;5032463;28;20297;-71
2021/10/23 02:56:30;;;;;;;3.50;2.38;;;9.20;63.50;;;;;;5032001;28;20213;-71
2021/10/23 02:58:57;;;;;;;5.07;2.22;;;9.20;63.40;;;;;;5033912;28;20210;-71
2021/10/23 03:01:24;;;;;;;3.15;2.10;;;9.20;63.70;;;;;;5046852;28;20203;-72
2021/10/23 03:03:53;;;;;;;3.40;2.22;;;9.20;64.10;;;;;;5043173;28;20217;-72
2021/10/23 03:06:19;;;;;;;4.85;2.53;;;9.20;64.40;;;;;;5032503;28;20203;-73
2021/10/23 03:08:47;;;;;;;4.47;2.17;;;9.20;64.10;;;;;;5032086;28;20206;-73
2021/10/23 03:11:14;;;;;;;3.72;2.40;;;9.20;64.50;;;;;;5032543;28;20313;-72
2021/10/23 03:13:41;;;;;;;5.88;2.30;;;9.20;64.60;;;;;;5032476;28;20707;-72
2021/10/23 03:16:09;;;;;;;4.43;2.53;;;9.20;64.80;;;;;;5032191;28;20204;-73
2021/10/23 03:18:36;;;;;;;7.05;2.55;;;9.20;65.00;;;;;;5032616;28;20217;-72
2021/10/23 03:21:05;;;;;;;3.30;2.00;;;9.20;65.10;;;;;;5032235;28;20230;-72
2021/10/23 03:23:32;;;;;;;5.03;2.20;;;9.20;65.10;;;;;;5032464;28;20825;-72
2021/10/23 03:25:59;;;;;;;6.53;2.38;;;9.20;65.30;;;;;;5032615;28;20294;-72
2021/10/23 03:28:25;;;;;;;6.32;2.40;;;9.20;65.40;;;;;;5032745;28;20203;-72
2021/10/23 03:30:52;;;;;;;3.95;2.33;;;9.20;65.70;;;;;;5032724;28;20710;-72
2021/10/23 03:33:19;;;;;;;5.55;2.40;;;9.20;66.00;;;;;;5032835;28;20238;-72
2021/10/23 03:35:46;;;;;;;3.95;2.42;;;9.20;65.90;;;;;;5036224;28;20210;-72
2021/10/23 03:38:14;;;;;;;4.55;2.35;;;9.20;66.00;;;;;;5036214;28;20573;-71
2021/10/23 03:40:41;;;;;;;6.45;2.70;;;9.20;66.00;;;;;;5036203;28;20593;-72
2021/10/23 03:43:08;;;;;;;3.88;2.45;;;9.10;66.30;;;;;;5036744;28;20211;-72
2021/10/23 03:45:35;;;;;;;5.60;2.40;;;9.10;66.90;;;;;;5036263;28;20695;-72
2021/10/23 03:48:02;;;;;;;5.07;2.42;;;9.10;67.10;;;;;;5036320;28;20218;-72
2021/10/23 03:50:29;;;;;;;5.30;3.10;;;9.10;67.80;;;;;;5035156;28;20262;-72
2021/10/23 03:52:56;;;;;;;3.92;2.30;;;9.00;67.70;;;;;;5036078;28;20242;-72
2021/10/23 03:55:24;;;;;;;4.38;2.50;;;9.00;67.70;;;;;;5035534;28;20201;-72
2021/10/23 03:57:51;;;;;;;3.83;2.53;;;8.90;67.60;;;;;;5036076;28;20293;-72
2021/10/23 04:00:19;;;;;;;3.15;2.08;;;8.90;67.70;;;;;;5035453;28;20235;-72
2021/10/23 04:02:45;;;;;;;7.90;2.55;;;8.80;68.10;;;;;;5035941;28;20203;-72
2021/10/23 04:05:13;;;;;;;12.90;2.70;;;8.80;69.50;;;;;;5035603;28;20215;-72
2021/10/23 04:07:39;;;;;;;5.90;2.47;;;8.70;69.90;;;;;;5035727;28;20210;-72
2021/10/23 04:10:07;;;;;;;5.25;2.58;;;8.80;70.10;;;;;;5035368;28;20232;-72
2021/10/23 04:12:35;;;;;;;4.03;2.72;;;8.80;70.00;;;;;;5035884;28;20226;-72
2021/10/23 04:15:02;;;;;;;3.55;2.30;;;8.70;70.00;;;;;;5036143;28;20230;-72
2021/10/23 04:17:29;;;;;;;5.25;2.60;;;8.70;70.90;;;;;;5035893;28;20294;-72
2021/10/23 04:19:56;;;;;;;11.48;2.65;;;8.60;71.30;;;;;;5037020;28;20273;-72
2021/10/23 04:22:23;;;;;;;5.97;2.47;;;8.60;72.20;;;;;;5038925;28;20203;-71
2021/10/23 04:24:51;;;;;;;5.35;2.30;;;8.50;72.60;;;;;;5036421;28;20852;-72
2021/10/23 04:27:18;;;;;;;2.63;2.40;;;8.50;73.20;;;;;;5035671;28;20230;-72
2021/10/23 04:29:46;;;;;;;7.85;3.17;;;8.50;73.10;;;;;;5035743;28;20254;-72
2021/10/23 04:32:13;;;;;;;3.72;2.15;;;8.50;73.30;;;;;;5016641;28;20235;-72
2021/10/23 04:34:40;;;;;;;6.45;2.80;;;8.50;73.00;;;;;;5017235;28;20231;-72
2021/10/23 04:37:07;;;;;;;6.80;3.03;;;8.50;73.00;;;;;;5016745;28;20212;-71
2021/10/23 04:39:33;;;;;;;3.60;2.53;;;8.50;73.00;;;;;;5019162;28;20224;-72
2021/10/23 04:42:01;;;;;;;2.28;1.92;;;8.40;73.00;;;;;;5036594;28;20205;-71
2021/10/23 04:44:28;;;;;;;3.38;2.38;;;8.40;73.40;;;;;;5036175;28;20207;-73
2021/10/23 04:46:56;;;;;;;7.90;3.15;;;8.30;73.80;;;;;;5035736;28;20279;-72
2021/10/23 04:49:23;;;;;;;5.03;2.95;;;8.20;73.80;;;;;;5043212;28;20221;-72
2021/10/23 04:51:50;;;;;;;4.18;2.63;;;8.20;74.40;;;;;;5036890;28;20613;-72
2021/10/23 04:54:17;;;;;;;4.28;2.33;;;8.20;75.40;;;;;;5036829;28;20318;-73
2021/10/23 04:56:43;;;;;;;5.20;2.35;;;8.10;75.30;;;;;;5037398;28;20221;-73
2021/10/23 04:59:10;;;;;;;6.57;2.70;;;8.10;74.40;;;;;;5036353;28;20227;-73
2021/10/23 05:01:37;;;;;;;6.10;2.30;;;8.10;73.40;;;;;;5043879;28;20687;-72
2021/10/23 05:04:05;;;;;;;5.95;2.90;;;8.10;72.90;;;;;;5057198;28;20199;-73
2021/10/23 05:06:32;;;;;;;5.43;2.40;;;8.00;72.70;;;;;;5057762;28;20218;-73
2021/10/23 05:08:59;;;;;;;6.40;2.00;;;8.00;72.50;;;;;;5057374;28;20270;-73
2021/10/23 05:11:26;;;;;;;3.05;2.35;;;8.00;71.90;;;;;;5055891;28;20259;-73
2021/10/23 05:13:53;;;;;;;7.15;2.70;;;8.00;72.30;;;;;;5048085;28;20223;-73
2021/10/23 05:16:19;;;;;;;4.43;3.08;;;7.90;72.20;;;;;;5055770;28;20207;-73
2021/10/23 05:18:49;;;;;;;3.58;2.63;;;7.90;72.70;;;;;;5056467;28;20214;-73
2021/10/23 05:21:18;;;;;;;5.47;2.40;;;7.80;72.60;;;;;;5056858;28;20206;-73
2021/10/23 05:23:45;;;;;;;4.13;2.60;;;7.80;73.70;;;;;;5054454;28;20196;-72
2021/10/23 05:26:12;;;;;;;6.50;2.80;;;7.80;74.10;;;;;;5054593;28;20218;-72
2021/10/23 05:28:39;;;;;;;2.72;2.25;;;7.80;73.60;;;;;;5053249;28;20217;-72
2021/10/23 05:31:06;;;;;;;4.90;2.47;;;7.80;73.00;;;;;;5039252;28;20667;-72
2021/10/23 05:33:33;;;;;;;4.30;2.65;;;7.70;73.40;;;;;;5034298;28;20219;-72
2021/10/23 05:36:00;;;;;;;2.80;2.40;;;7.70;74.00;;;;;;5034441;28;20295;-72
2021/10/23 05:38:28;;;;;;;5.25;2.95;;;7.70;74.60;;;;;;5033968;28;20203;-72
2021/10/23 05:40:55;;;;;;;8.02;2.90;;;7.80;74.00;;;;;;5033811;28;20231;-71
2021/10/23 05:43:21;;;;;;;6.07;3.45;;;7.80;73.20;;;;;;5033782;28;20287;-71
2021/10/23 05:45:49;;;;;;;4.47;2.75;;;7.70;73.60;;;;;;5033913;28;20235;-71
2021/10/23 05:48:15;;;;;;;3.53;2.33;;;7.70;73.80;;;;;;5033825;28;20256;-72
2021/10/23 05:50:42;;;;;;;4.85;2.65;;;7.70;73.90;;;;;;5033826;28;20261;-72
2021/10/23 05:53:09;;;;;;;5.93;2.60;;;7.70;74.00;;;;;;5033970;28;20262;-72
2021/10/23 05:55:37;;;;;;;4.10;2.83;;;7.70;74.10;;;;;;5033651;28;20203;-72
2021/10/23 05:58:05;;;;;;;4.65;2.92;;;7.60;74.40;;;;;;5034215;28;20207;-72
2021/10/23 06:00:34;;;;;;;4.47;3.25;;;7.60;75.20;;;;;;5033012;28;20230;-72
2021/10/23 06:03:01;;;;;;;5.80;3.22;;;7.50;75.10;;;;;;5033849;28;20199;-72
2021/10/23 06:05:30;;;;;;;4.95;3.03;;;7.50;75.10;;;;;;5033214;28;20207;-72
2021/10/23 06:07:57;;;;;;;9.95;2.92;;;7.50;75.10;;;;;;5033774;28;20214;-72
2021/10/23 06:10:24;;;;;;;5.10;3.33;;;7.40;76.10;;;;;;5033103;28;20233;-72
2021/10/23 06:12:52;;;;;;;5.80;3.30;;;7.40;76.20;;;;;;5033557;28;20687;-72
2021/10/23 06:15:19;;;;;;;8.02;3.25;;;7.40;76.80;;;;;;5033774;28;20207;-73
2021/10/23 06:17:46;;;;;;;5.47;3.28;;;7.30;77.40;;;;;;5042186;28;20207;-73
2021/10/23 06:20:12;;;;;;;4.80;2.80;;;7.30;77.20;;;;;;5041752;28;20249;-73
2021/10/23 06:22:49;;;;;;;10.00;3.67;;;7.30;77.90;;;;;;5042566;28;20215;-72
2021/10/23 06:25:17;;;;;;;5.40;3.65;;;7.30;78.00;;;;;;5036470;28;20214;-72
2021/10/23 06:27:44;;;;;;;4.35;2.72;;;7.20;78.10;;;;;;5034022;28;20214;-72
2021/10/23 06:30:12;;;;;;;5.82;3.05;;;7.20;78.20;;;;;;5033312;28;20234;-72
2021/10/23 06:32:45;;;;;;;8.15;4.57;;;7.20;78.30;;;;;;5033357;28;20215;-72
2021/10/23 06:35:12;;;;;;;3.28;2.92;;;7.20;78.50;;;;;;5032735;28;20622;-72
2021/10/23 06:37:39;;;;;;;5.97;2.78;;;7.30;78.50;;;;;;5033267;28;20221;-73
2021/10/23 06:40:07;;;;;;;3.95;2.53;;;7.20;78.30;;;;;;5033013;28;20221;-74
2021/10/23 06:42:34;;;;;;;5.93;2.92;;;7.30;78.40;;;;;;5033758;28;20210;-74
2021/10/23 06:45:01;;;;;;;6.72;3.58;;;7.30;77.40;;;;;;5034791;28;20203;-73
2021/10/23 06:47:30;;;;;;;5.43;3.05;;;7.40;77.60;;;;;;5032895;28;20236;-73
2021/10/23 06:49:58;;;;;;;8.40;3.22;;;7.40;77.20;;;;;;5032881;28;20230;-76
2021/10/23 06:52:25;;;;;;;5.55;3.42;;;7.40;77.60;;;;;;5033042;28;20207;-76
2021/10/23 06:54:52;;;;;;;4.55;2.80;;;7.40;77.20;;;;;;5033296;28;20253;-75
2021/10/23 06:57:19;;;;;;;5.10;3.10;;;7.50;77.10;;;;;;5033027;28;20663;-76
2021/10/23 06:59:46;;;;;;;9.45;3.92;;;7.50;77.00;;;;;;5034921;28;20226;-79
2021/10/23 07:02:12;;;;;;;6.68;3.15;;;7.50;76.20;;;;;;5040234;28;20285;-78
2021/10/23 07:04:41;;;;;;;5.03;2.65;;;7.60;75.80;;;;;;5052887;28;20282;-77
2021/10/23 07:07:08;;;;;;;4.20;2.80;;;7.60;75.20;;;;;;5055415;28;20195;-80
2021/10/23 07:09:34;;;;;;;3.70;2.65;;;7.70;75.30;;;;;;5039032;28;20254;-78
2021/10/23 07:12:02;;;;;;;6.93;3.42;;;7.80;75.40;;;;;;5039809;28;20237;-78
2021/10/23 07:14:29;;;;;;;3.42;2.65;;;7.80;74.80;;;;;;5039229;28;20222;-78
2021/10/23 07:16:56;;;;;;;7.85;3.65;;;7.90;74.30;;;;;;5039437;28;20301;-78
2021/10/23 07:19:23;;;;;;;7.30;3.30;;;7.90;73.80;;;;;;5038142;28;20246;-78
2021/10/23 07:21:51;;;;;;;7.32;3.10;;;8.00;73.90;;;;;;5036437;28;20217;-77
2021/10/23 07:24:19;;;;;;;5.97;3.67;;;8.00;72.50;;;;;;5043672;28;20680;-78
2021/10/23 07:26:46;;;;;;;5.75;3.20;;;8.00;72.40;;;;;;5038777;28;20230;-78
2021/10/23 07:29:13;;;;;;;3.90;3.17;;;8.10;71.90;;;;;;5022034;28;20247;-80
2021/10/23 07:31:40;;;;;;;4.05;2.97;;;8.10;72.00;;;;;;5018890;28;20664;-79
2021/10/23 07:34:07;;;;;;;5.85;4.22;;;8.20;71.30;;;;;;5037688;28;20424;-78
2021/10/23 07:36:34;;;;;;;7.18;3.72;;;8.30;70.70;;;;;;5042472;28;20206;-79
2021/10/23 07:39:03;;;;;;;4.18;2.80;;;8.40;70.40;;;;;;5037654;28;20338;-78
2021/10/23 07:41:30;;;;;;;6.88;3.80;;;8.50;70.10;;;;;;5041547;28;20586;-79
2021/10/23 07:43:57;;;;;;;5.75;3.13;;;8.50;69.70;;;;;;5047559;28;20198;-78
2021/10/23 07:46:25;;;;;;;5.80;3.45;;;8.60;68.90;;;;;;5044829;28;20203;-78
2021/10/23 07:48:52;;;;;;;6.97;3.70;;;8.70;67.40;;;;;;5045120;28;20266;-78
2021/10/23 07:51:19;;;;;;;8.40;3.78;;;8.80;68.20;;;;;;5053611;28;20215;-79
2021/10/23 07:53:46;;;;;;;5.97;3.30;;;8.90;68.30;;;;;;5046434;28;20273;-78
2021/10/23 07:56:14;;;;;;;9.93;3.95;;;8.90;67.60;;;;;;5046763;28;20203;-78
2021/10/23 07:58:41;;;;;;;7.93;3.47;;;9.00;66.80;;;;;;5048975;28;20208;-77
2021/10/23 08:01:08;;;;;;;5.95;3.45;;;9.00;66.00;;;;;;5052904;28;20207;-78
2021/10/23 08:03:35;;;;;;;8.27;5.18;;;9.00;65.70;;;;;;5038241;28;20200;-77
2021/10/23 08:06:02;;;;;;;9.02;4.78;;;9.10;66.30;;;;;;5037580;28;20203;-77
2021/10/23 08:08:29;;;;;;;6.97;3.97;;;9.10;65.90;;;;;;5037220;28;20218;-77
2021/10/23 08:10:58;;;;;;;9.52;3.85;;;9.20;65.50;;;;;;5037958;28;20225;-77
2021/10/23 08:13:27;;;;;;;7.18;4.38;;;9.20;65.10;;;;;;5037100;28;20250;-79
2021/10/23 08:15:54;;;;;;;10.38;4.55;;;9.30;65.20;;;;;;5041067;28;20208;-77
2021/10/23 08:18:22;;;;;;;13.13;4.55;;;9.30;64.30;;;;;;5057665;28;20305;-78
2021/10/23 08:20:49;;;;;;;11.30;4.20;;;9.40;64.50;;;;;;5036863;28;20220;-77
2021/10/23 08:23:16;;;;;;;7.53;3.67;;;9.40;63.60;;;;;;5033004;28;20576;-76
2021/10/23 08:25:43;;;;;;;6.40;3.70;;;9.50;63.30;;;;;;5024875;28;20783;-78
2021/10/23 08:28:11;;;;;;;7.75;3.92;;;9.60;62.80;;;;;;5018069;28;20288;-77
2021/10/23 08:30:40;;;;;;;6.93;4.85;;;9.70;62.20;;;;;;5016464;28;20320;-77
2021/10/23 08:33:07;;;;;;;5.35;3.67;;;9.70;61.50;;;;;;5052009;28;20620;-77
2021/10/23 08:35:34;;;;;;;5.47;3.58;;;9.70;61.50;;;;;;5044019;28;20276;-76
2021/10/23 08:38:01;;;;;;;9.27;4.30;;;9.70;61.30;;;;;;5036161;28;20223;-78
2021/10/23 08:40:28;;;;;;;6.57;3.88;;;9.80;60.90;;;;;;5033681;28;20273;-77
2021/10/23 08:42:55;;;;;;;4.80;3.83;;;9.80;60.50;;;;;;5040312;28;20223;-78
2021/10/23 08:45:23;;;;;;;11.93;4.32;;;9.90;60.60;;;;;;5043604;28;20197;-78
2021/10/23 08:47:52;;;;;;;9.63;4.68;;;10.00;58.70;;;;;;5037379;28;20213;-77
2021/10/23 08:50:21;;;;;;;6.35;4.20;;;10.00;58.70;;;;;;5034562;28;20231;-78
2021/10/23 08:52:52;;;;;;;11.77;4.18;;;10.10;58.80;;;;;;5036796;28;20214;-78
2021/10/23 08:55:20;;;;;;;5.57;4.10;;;10.10;58.80;;;;;;5034049;28;20265;-78
2021/10/23 08:57:47;;;;;;;6.82;3.90;;;10.20;58.90;;;;;;5034597;28;20222;-77
2021/10/23 09:00:15;;;;;;;6.07;4.10;;;10.30;59.00;;;;;;5036246;28;20229;-78
2021/10/23 09:02:42;;;;;;;9.40;3.90;;;10.40;58.50;;;;;;5036847;28;20236;-78
2021/10/23 09:05:11;;;;;;;7.65;4.47;;;10.50;59.10;;;;;;5039632;28;20549;-78
2021/10/23 09:07:45;;;;;;;5.82;4.18;;;10.60;58.00;;;;;;5037394;28;20200;-78
2021/10/23 09:10:16;;;;;;;9.25;5.03;;;10.60;57.30;;;;;;5039016;28;20216;-78
2021/10/23 09:12:44;;;;;;;12.38;5.57;;;10.70;57.40;;;;;;5041557;28;20231;-77
2021/10/23 09:15:12;;;;;;;13.80;5.50;;;10.70;56.90;;;;;;5049645;28;20293;-77
2021/10/23 09:17:41;;;;;;;8.27;5.30;;;10.70;57.50;;;;;;5057368;28;20207;-77
2021/10/23 09:20:12;;;;;;;8.40;5.25;;;10.80;57.30;;;;;;5054522;28;20222;-77
2021/10/23 09:22:40;;;;;;;9.52;5.05;;;10.90;57.40;;;;;;5058033;28;20185;-77
2021/10/23 09:25:13;;;;;;;10.95;4.68;;;10.90;56.80;;;;;;5050373;28;20204;-77
2021/10/23 09:27:53;;;;;;;12.05;5.13;;;11.10;56.10;;;;;;5041452;28;20198;-78
2021/10/23 09:30:21;;;;;;;12.07;5.53;;;11.10;56.10;;;;;;5040233;28;20226;-78
2021/10/23 09:33:00;;;;;;;8.55;4.60;;;11.10;56.10;;;;;;5038899;28;20291;-77
2021/10/23 09:35:28;;;;;;;9.77;4.82;;;11.20;56.50;;;;;;5036319;28;20209;-78
2021/10/23 09:37:57;;;;;;;7.15;4.68;;;11.30;56.40;;;;;;5033576;28;20214;-78
2021/10/23 09:40:25;;;;;;;7.57;4.43;;;11.50;55.80;;;;;;5015870;28;20231;-78
2021/10/23 09:43:09;;;;;;;7.97;4.38;;;11.60;56.00;;;;;;5026141;28;20291;-77
2021/10/23 09:45:37;;;;;;;6.40;3.72;;;11.60;55.30;;;;;;5038665;28;20667;-79
2021/10/23 09:48:10;;;;;;;8.70;4.57;;;11.60;54.50;;;;;;5040507;28;20213;-76
2021/10/23 09:50:38;;;;;;;6.32;3.40;;;11.60;54.30;;;;;;5033133;28;20240;-76
2021/10/23 09:53:08;;;;;;;6.20;3.58;;;11.60;54.40;;;;;;5035631;28;20207;-78
2021/10/23 09:55:36;;;;;;;5.90;3.55;;;11.70;53.70;;;;;;5038992;28;20248;-78
2021/10/23 09:58:22;;;;;;;8.73;4.13;;;11.70;52.90;;;;;;5036766;28;20214;-78
2021/10/23 10:00:51;;;;;;;5.72;3.60;;;11.70;53.40;;;;;;5017201;28;20770;-78
2021/10/23 10:03:18;;;;;;;10.50;4.03;;;11.70;53.40;;;;;;5017470;28;20211;-78
2021/10/23 10:05:52;;;;;;;6.10;3.60;;;11.70;53.00;;;;;;5037628;28;20273;-79
2021/10/23 10:08:19;;;;;;;6.32;3.75;;;11.70;52.90;;;;;;5041804;28;20222;-78
2021/10/23 10:10:48;;;;;;;7.57;3.90;;;11.70;52.90;;;;;;5037366;28;20225;-78
2021/10/23 10:13:19;;;;;;;5.78;4.13;;;11.80;52.60;;;;;;5026236;28;20589;-78
2021/10/23 10:15:47;;;;;;;9.43;4.30;;;11.90;53.00;;;;;;5029143;28;20230;-79
2021/10/23 10:18:16;;;;;;;5.72;4.15;;;11.90;53.10;;;;;;5039207;28;20211;-79
2021/10/23 10:20:45;;;;;;;5.95;4.05;;;11.90;53.10;;;;;;5057192;28;20230;-77
2021/10/23 10:23:17;;;;;;;8.07;4.10;;;12.00;52.20;;;;;;5045277;28;20745;-78
2021/10/23 10:25:45;;;;;;;9.70;4.40;;;12.20;52.10;;;;;;5044823;28;20183;-78
2021/10/23 10:28:17;;;;;;;4.88;4.10;;;12.20;51.70;;;;;;5039258;28;20217;-78
2021/10/23 10:30:46;;;;;;;6.68;3.70;;;12.30;51.40;;;;;;5039031;28;20216;-78
2021/10/23 10:33:27;;;;;;;7.55;3.92;;;12.40;51.50;;;;;;5050837;28;20203;-78
2021/10/23 10:36:30;;;;;;;6.75;3.60;;;12.60;51.70;;;;;;5047601;28;20724;-78
2021/10/23 10:39:24;;;;;;;7.50;4.00;;;12.40;51.50;;;;;;5048173;28;20222;-79
2021/10/23 10:42:50;;;;;;;6.07;3.90;;;12.30;52.10;;;;;;5052558;28;20218;-81
2021/10/23 10:45:25;;;;;;;5.57;3.42;;;12.40;51.40;;;;;;5046848;28;20210;-79
2021/10/23 10:48:13;;;;;;;6.97;3.30;;;12.50;51.10;;;;;;5044891;28;20206;-78
2021/10/23 10:50:42;;;;;;;7.93;4.05;;;12.60;50.50;;;;;;5046919;28;20238;-80
2021/10/23 10:53:20;;;;;;;5.65;3.83;;;12.60;49.90;;;;;;5052988;28;20469;-79
2021/10/23 10:55:50;;;;;;;4.28;3.63;;;12.60;49.60;;;;;;5052205;28;20219;-80
2021/10/23 10:58:18;;;;;;;5.70;3.72;;;12.50;49.50;;;;;;5046283;28;20677;-79
2021/10/23 11:01:11;;;;;;;3.75;3.10;;;12.60;49.30;;;;;;5062864;28;20494;-79
2021/10/23 11:03:40;;;;;;;6.57;3.08;;;12.50;49.20;;;;;;5017504;28;20199;-77
2021/10/23 11:06:45;;;;;;;6.75;3.97;;;12.60;49.00;;;;;;5020623;28;20385;-76
2021/10/23 11:09:44;;;;;;;9.38;3.55;;;12.80;49.70;;;;;;5034064;28;20293;-77
2021/10/23 11:12:16;;;;;;;6.78;4.00;;;12.70;48.80;;;;;;5033580;28;20212;-78
2021/10/23 11:14:44;;;;;;;6.22;4.25;;;12.70;48.60;;;;;;5033711;28;20226;-74
2021/10/23 11:17:19;;;;;;;7.57;3.75;;;12.80;48.90;;;;;;5032201;28;20213;-76
2021/10/23 11:19:51;;;;;;;20.17;5.22;;;12.90;48.40;;;;;;5036851;28;20229;-75
2021/10/23 11:22:21;;;;;;;57.22;7.93;;;12.70;49.30;;;;;;5048036;28;20595;-76
2021/10/23 11:24:50;;;;;;;7.97;4.32;;;12.80;49.20;;;;;;5047214;28;20203;-75
2021/10/23 11:27:33;;;;;;;30.60;5.35;;;13.00;49.60;;;;;;5029228;28;20231;-75
2021/10/23 11:30:17;;;;;;;3.83;3.40;;;13.40;48.30;;;;;;5016840;28;20230;-77
2021/10/23 11:32:52;;;;;;;65.57;8.93;;;13.70;46.80;;;;;;5037101;28;20290;-76
2021/10/23 11:35:26;;;;;;;18.70;4.18;;;13.90;46.80;;;;;;5039977;28;20222;-76
2021/10/23 11:37:54;;;;;;;5.65;2.95;;;14.20;45.10;;;;;;5052280;28;20270;-76
2021/10/23 11:40:21;;;;;;;6.93;3.30;;;14.20;43.40;;;;;;5050276;28;20223;-76
2021/10/23 11:42:51;;;;;;;23.52;4.55;;;14.10;44.30;;;;;;5049501;28;20238;-75
2021/10/23 11:45:21;;;;;;;18.00;4.40;;;14.10;44.20;;;;;;5036567;28;20310;-76
2021/10/23 11:47:50;;;;;;;175.25;17.30;;;14.10;43.50;;;;;;5035190;28;20482;-75
2021/10/23 11:50:22;;;;;;;17.52;4.85;;;14.20;43.70;;;;;;5034238;28;20329;-75
2021/10/23 11:52:51;;;;;;;6.72;2.83;;;14.50;43.70;;;;;;5034122;28;20675;-74
2021/10/23 11:55:32;;;;;;;10.07;3.40;;;14.80;42.20;;;;;;5035492;28;20223;-76
2021/10/23 11:58:03;;;;;;;8.83;3.53;;;14.80;41.70;;;;;;5037650;28;20264;-75
2021/10/23 12:00:32;;;;;;;8.20;3.10;;;14.90;40.80;;;;;;5037483;28;20477;-74
2021/10/23 12:03:03;;;;;;;5.43;2.50;;;14.60;41.00;;;;;;5038255;28;20487;-76
2021/10/23 12:05:38;;;;;;;3.50;2.47;;;14.30;39.80;;;;;;5038831;28;20262;-75
2021/10/23 12:08:16;;;;;;;2.40;2.20;;;14.80;38.60;;;;;;5048935;28;20434;-75
2021/10/23 12:11:10;;;;;;;3.43;1.90;;;15.30;37.70;;;;;;5050595;28;20475;-76
2021/10/23 12:13:54;;;;;;;2.57;1.60;;;15.60;34.70;;;;;;5052223;28;20440;-76
2021/10/23 12:16:38;;;;;;;3.75;2.08;;;15.50;34.60;;;;;;5043545;28;20593;-77
2021/10/23 12:19:11;;;;;;;10.50;2.10;;;14.90;35.50;;;;;;5048103;28;20227;-76
2021/10/23 12:21:56;;;;;;;2.73;2.00;;;14.70;37.40;;;;;;5049453;28;20201;-77
2021/10/23 12:24:29;;;;;;;3.30;1.83;;;14.60;36.10;;;;;;5045339;28;20511;-76
2021/10/23 12:27:20;;;;;;;5.87;1.40;;;14.60;35.70;;;;;;5038555;28;20402;-77
2021/10/23 12:29:49;;;;;;;6.40;2.37;;;14.60;37.40;;;;;;5053637;28;20521;-76
2021/10/23 12:32:19;;;;;;;3.58;1.98;;;14.50;39.40;;;;;;5018847;28;20530;-77
2021/10/23 12:35:07;;;;;;;6.18;1.85;;;14.50;40.00;;;;;;5024128;28;20228;-75
2021/10/23 12:37:43;;;;;;;3.20;1.90;;;14.60;40.60;;;;;;5038312;28;20276;-76
2021/10/23 12:40:20;;;;;;;2.43;1.90;;;14.40;41.30;;;;;;5038975;28;20215;-75
2021/10/23 12:42:49;;;;;;;3.08;1.52;;;14.50;40.60;;;;;;5039299;28;20410;-76
2021/10/23 12:45:19;;;;;;;2.78;1.48;;;14.60;39.10;;;;;;5037600;28;20208;-76
2021/10/23 12:47:46;;;;;;;4.82;1.98;;;14.60;37.80;;;;;;5031210;28;20210;-76
2021/10/23 12:50:14;;;;;;;4.43;1.70;;;14.50;38.70;;;;;;5019450;28;20244;-76
2021/10/23 12:52:42;;;;;;;2.70;1.60;;;14.40;38.60;;;;;;5021350;28;20208;-77
2021/10/23 12:55:11;;;;;;;4.97;1.90;;;14.40;40.00;;;;;;5019458;28;20223;-77
2021/10/23 12:57:38;;;;;;;5.07;2.88;;;13.80;42.10;;;;;;5021031;28;20687;-77
2021/10/23 13:00:07;;;;;;;6.32;2.70;;;13.70;42.00;;;;;;5019032;28;20263;-76
2021/10/23 13:02:35;;;;;;;4.25;1.60;;;13.80;41.60;;;;;;5022305;28;20255;-76
2021/10/23 13:05:02;;;;;;;6.05;1.73;;;13.80;42.20;;;;;;5021136;28;20298;-78